createdAt,value
2022-09-27T00:01:05.658Z,1.40
2022-09-27T00:03:33.038Z,1.55
2022-09-27T00:06:08.024Z,1.63
2022-09-27T00:08:35.838Z,1.30
2022-09-27T00:11:03.695Z,1.30
2022-09-27T00:13:30.986Z,1.40
2022-09-27T00:15:59.001Z,1.50
2022-09-27T00:18:26.034Z,1.20
2022-09-27T00:20:53.057Z,1.30
2022-09-27T00:23:20.118Z,1.37
2022-09-27T00:25:57.218Z,1.30
2022-09-27T00:28:24.508Z,1.40
2022-09-27T00:30:51.659Z,1.60
2022-09-27T00:33:18.735Z,1.20
2022-09-27T00:35:45.751Z,1.47
2022-09-27T00:38:12.952Z,1.42
2022-09-27T00:40:40.281Z,1.60
2022-09-27T00:43:18.205Z,1.47
2022-09-27T00:45:48.469Z,1.20
2022-09-27T00:48:18.065Z,1.30
2022-09-27T00:50:47.507Z,1.10
2022-09-27T00:53:21.431Z,1.10
2022-09-27T00:56:02.183Z,1.17
2022-09-27T00:58:36.867Z,1.17
2022-09-27T01:01:06.487Z,1.10
2022-09-27T01:03:43.780Z,1.30
2022-09-27T01:06:11.206Z,1.30
2022-09-27T01:08:38.191Z,1.20
2022-09-27T01:11:12.714Z,1.30
2022-09-27T01:13:44.169Z,1.10
2022-09-27T01:16:46.725Z,1.25
2022-09-27T01:19:22.967Z,1.43
2022-09-27T01:21:54.986Z,1.40
2022-09-27T01:24:40.826Z,1.30
2022-09-27T01:27:22.217Z,1.17
2022-09-27T01:30:01.594Z,1.10
2022-09-27T01:32:42.143Z,1.10
2022-09-27T01:35:22.913Z,1.30
2022-09-27T01:38:02.157Z,1.40
2022-09-27T01:40:42.630Z,1.20
2022-09-27T01:43:13.823Z,1.00
2022-09-27T01:45:44.660Z,1.40
2022-09-27T01:48:15.055Z,1.23
2022-09-27T01:51:01.058Z,1.30
2022-09-27T01:53:31.476Z,1.50
2022-09-27T01:55:58.657Z,1.40
2022-09-27T01:58:34.786Z,1.40
2022-09-27T02:01:02.160Z,1.13
2022-09-27T02:03:35.965Z,1.20
2022-09-27T02:06:04.420Z,1.20
2022-09-27T02:08:31.871Z,1.30
2022-09-27T02:11:01.854Z,1.23
2022-09-27T02:13:34.399Z,1.20
2022-09-27T02:16:12.777Z,1.20
2022-09-27T02:19:03.060Z,1.40
2022-09-27T02:21:33.776Z,1.40
2022-09-27T02:24:01.885Z,1.33
2022-09-27T02:26:32.286Z,1.40
2022-09-27T02:29:02.902Z,1.40
2022-09-27T02:31:30.007Z,1.63
2022-09-27T02:34:06.497Z,1.43
2022-09-27T02:36:33.641Z,1.33
2022-09-27T02:39:01.225Z,1.27
2022-09-27T02:41:28.228Z,1.00
2022-09-27T02:44:03.105Z,1.10
2022-09-27T02:46:45.379Z,1.20
2022-09-27T02:49:31.016Z,1.07
2022-09-27T02:52:07.160Z,1.10
2022-09-27T02:54:58.046Z,1.00
2022-09-27T02:57:35.273Z,1.03
2022-09-27T03:00:07.541Z,1.20
2022-09-27T03:02:38.287Z,1.30
2022-09-27T03:05:13.983Z,1.35
2022-09-27T03:07:41.163Z,1.30
2022-09-27T03:10:08.379Z,1.40
2022-09-27T03:12:35.399Z,1.50
2022-09-27T03:15:02.425Z,1.40
2022-09-27T03:17:29.466Z,1.60
2022-09-27T03:19:56.469Z,1.93
2022-09-27T03:22:23.487Z,1.70
2022-09-27T03:24:50.528Z,1.43
2022-09-27T03:27:17.527Z,1.67
2022-09-27T03:29:44.530Z,1.60
2022-09-27T03:32:11.664Z,1.77
2022-09-27T03:34:38.646Z,1.77
2022-09-27T03:37:05.644Z,1.70
2022-09-27T03:39:33.173Z,1.93
2022-09-27T03:42:00.285Z,1.93
2022-09-27T03:44:27.347Z,1.88
2022-09-27T03:46:54.351Z,1.90
2022-09-27T03:49:21.439Z,1.80
2022-09-27T03:51:48.450Z,2.10
2022-09-27T03:54:15.665Z,2.37
2022-09-27T03:56:42.785Z,2.17
2022-09-27T03:59:10.007Z,1.90
2022-09-27T04:01:38.835Z,1.77
2022-09-27T04:04:10.875Z,1.93
2022-09-27T04:06:38.323Z,2.20
2022-09-27T04:09:05.385Z,1.87
2022-09-27T04:11:32.388Z,2.30
2022-09-27T04:13:59.439Z,2.10
2022-09-27T04:16:27.459Z,2.00
2022-09-27T04:18:54.514Z,2.13
2022-09-27T04:21:22.497Z,2.27
2022-09-27T04:23:49.561Z,2.23
2022-09-27T04:26:16.604Z,2.20
2022-09-27T04:28:43.591Z,2.63
2022-09-27T04:31:10.650Z,3.37
2022-09-27T04:33:37.695Z,2.43
2022-09-27T04:36:23.251Z,2.20
2022-09-27T04:38:50.227Z,2.57
2022-09-27T04:41:17.207Z,2.53
2022-09-27T04:43:44.182Z,3.13
2022-09-27T04:46:11.213Z,2.57
2022-09-27T04:48:38.330Z,2.10
2022-09-27T04:51:05.379Z,2.13
2022-09-27T04:53:32.439Z,2.70
2022-09-27T04:55:59.588Z,2.40
2022-09-27T04:58:27.069Z,2.40
2022-09-27T05:00:55.643Z,2.30
2022-09-27T05:03:26.295Z,2.20
2022-09-27T05:05:53.271Z,2.17
2022-09-27T05:08:21.064Z,2.43
2022-09-27T05:10:48.346Z,2.33
2022-09-27T05:13:15.338Z,2.27
2022-09-27T05:15:42.813Z,2.00
2022-09-27T05:18:10.463Z,2.40
2022-09-27T05:20:37.831Z,1.90
2022-09-27T05:23:05.076Z,2.00
2022-09-27T05:25:32.723Z,1.83
2022-09-27T05:27:59.964Z,2.00
2022-09-27T05:30:27.581Z,1.97
2022-09-27T05:32:55.305Z,2.00
2022-09-27T05:35:22.458Z,2.30
2022-09-27T05:38:07.760Z,1.70
2022-09-27T05:40:41.341Z,1.80
2022-09-27T05:43:08.687Z,1.50
2022-09-27T05:45:35.663Z,1.90
2022-09-27T05:48:03.158Z,1.97
2022-09-27T05:50:29.810Z,1.40
2022-09-27T05:52:56.458Z,1.80
2022-09-27T05:55:23.071Z,1.90
2022-09-27T05:58:00.783Z,1.50
2022-09-27T06:00:28.379Z,1.77
2022-09-27T06:02:56.706Z,1.90
2022-09-27T06:05:23.997Z,1.80
2022-09-27T06:07:50.918Z,1.73
2022-09-27T06:10:19.580Z,2.00
2022-09-27T06:12:46.540Z,2.42
2022-09-27T06:15:13.150Z,2.20
2022-09-27T06:17:39.723Z,2.13
2022-09-27T06:20:07.605Z,1.93
2022-09-27T06:22:34.403Z,1.67
2022-09-27T06:25:00.950Z,1.70
2022-09-27T06:27:27.538Z,1.40
2022-09-27T06:29:54.086Z,1.50
2022-09-27T06:32:20.656Z,1.57
2022-09-27T06:34:47.375Z,1.50
2022-09-27T06:37:15.196Z,1.40
2022-09-27T06:39:42.439Z,1.27
2022-09-27T06:42:11.074Z,1.20
2022-09-27T06:44:37.691Z,1.37
2022-09-27T06:47:04.289Z,1.40
2022-09-27T06:49:31.543Z,1.45
2022-09-27T06:51:58.115Z,1.07
2022-09-27T06:54:24.671Z,1.07
2022-09-27T06:56:51.236Z,1.10
2022-09-27T06:59:36.380Z,1.00
2022-09-27T07:02:03.142Z,0.90
2022-09-27T07:04:29.873Z,0.90
2022-09-27T07:06:57.054Z,0.83
2022-09-27T07:09:23.634Z,0.80
2022-09-27T07:11:50.196Z,0.73
2022-09-27T07:14:17.488Z,1.00
2022-09-27T07:16:45.572Z,1.23
2022-09-27T07:19:14.319Z,1.30
2022-09-27T07:21:40.943Z,1.10
2022-09-27T07:24:07.491Z,1.10
2022-09-27T07:26:34.041Z,0.93
2022-09-27T07:29:01.544Z,1.10
2022-09-27T07:31:29.609Z,1.27
2022-09-27T07:33:56.578Z,1.07
2022-09-27T07:36:23.711Z,0.83
2022-09-27T07:38:50.480Z,1.17
2022-09-27T07:41:17.527Z,1.20
2022-09-27T07:43:45.216Z,1.20
2022-09-27T07:46:13.342Z,1.30
2022-09-27T07:48:41.060Z,2.97
2022-09-27T07:51:10.678Z,1.43
2022-09-27T07:53:37.713Z,2.00
2022-09-27T07:56:04.550Z,1.90
2022-09-27T07:58:32.250Z,1.60
2022-09-27T08:00:59.728Z,1.37
2022-09-27T08:03:26.401Z,1.40
2022-09-27T08:05:52.974Z,1.40
2022-09-27T08:08:19.533Z,1.27
2022-09-27T08:10:47.410Z,1.47
2022-09-27T08:13:17.855Z,1.47
2022-09-27T08:15:44.422Z,1.40
2022-09-27T08:18:11.108Z,1.20
2022-09-27T08:20:37.754Z,1.30
2022-09-27T08:23:04.387Z,1.57
2022-09-27T08:25:31.430Z,1.23
2022-09-27T08:28:00.407Z,1.43
2022-09-27T08:30:27.981Z,1.40
2022-09-27T08:32:59.185Z,1.20
2022-09-27T08:35:28.088Z,1.30
2022-09-27T08:37:59.958Z,0.97
2022-09-27T08:40:55.873Z,1.20
2022-09-27T08:43:52.499Z,1.30
2022-09-27T08:46:53.904Z,1.27
2022-09-27T08:49:30.865Z,1.37
2022-09-27T08:51:59.464Z,1.47
2022-09-27T08:54:30.266Z,1.57
2022-09-27T08:57:07.095Z,1.50
2022-09-27T08:59:40.570Z,1.90
2022-09-27T09:02:24.438Z,2.00
2022-09-27T09:04:55.052Z,2.03
2022-09-27T09:07:52.510Z,1.70
2022-09-27T09:11:05.300Z,1.60
2022-09-27T09:14:14.176Z,1.50
2022-09-27T09:17:20.359Z,1.48
2022-09-27T09:20:05.019Z,1.50
2022-09-27T09:23:07.659Z,1.30
2022-09-27T09:25:56.819Z,1.50
2022-09-27T09:29:03.118Z,1.37
2022-09-27T09:31:52.223Z,1.40
2022-09-27T09:34:24.554Z,1.23
2022-09-27T09:37:01.059Z,1.57
2022-09-27T09:39:40.272Z,1.60
2022-09-27T09:42:07.327Z,1.70
2022-09-27T09:44:45.408Z,1.60
2022-09-27T09:47:24.683Z,1.77
2022-09-27T09:49:55.993Z,2.20
2022-09-27T09:52:24.330Z,1.73
2022-09-27T09:54:57.305Z,1.80
2022-09-27T09:57:44.567Z,1.77
2022-09-27T10:00:15.834Z,1.80
2022-09-27T10:02:43.858Z,2.00
2022-09-27T10:05:14.614Z,1.83
2022-09-27T10:07:41.786Z,1.40
2022-09-27T10:10:09.775Z,1.70
2022-09-27T10:12:37.563Z,1.70
2022-09-27T10:15:05.630Z,1.83
2022-09-27T10:17:42.825Z,1.67
2022-09-27T10:20:18.672Z,1.30
2022-09-27T10:22:48.766Z,1.80
2022-09-27T10:25:16.444Z,1.53
2022-09-27T10:27:45.818Z,1.67
2022-09-27T10:30:23.962Z,1.70
2022-09-27T10:32:52.549Z,1.60
2022-09-27T10:35:32.807Z,1.50
2022-09-27T10:38:18.607Z,1.50
2022-09-27T10:40:46.112Z,1.30
2022-09-27T10:43:33.260Z,1.70
2022-09-27T10:46:03.130Z,1.50
2022-09-27T10:48:30.449Z,1.50
2022-09-27T10:51:02.399Z,1.70
2022-09-27T10:53:30.735Z,1.53
2022-09-27T10:55:58.127Z,1.53
2022-09-27T10:58:31.226Z,1.70
2022-09-27T11:01:05.865Z,1.70
2022-09-27T11:03:34.606Z,1.57
2022-09-27T11:06:18.798Z,1.40
2022-09-27T11:08:48.741Z,1.40
2022-09-27T11:11:16.395Z,1.50
2022-09-27T11:13:57.898Z,1.73
2022-09-27T11:16:43.753Z,1.20
2022-09-27T11:19:17.341Z,1.50
2022-09-27T11:21:50.322Z,1.70
2022-09-27T11:24:17.349Z,1.33
2022-09-27T11:26:44.858Z,1.40
2022-09-27T11:29:14.873Z,1.30
2022-09-27T11:31:59.263Z,1.40
2022-09-27T11:34:34.479Z,1.13
2022-09-27T11:37:05.139Z,1.37
2022-09-27T11:39:39.645Z,1.50
2022-09-27T11:42:23.641Z,1.50
2022-09-27T11:45:19.893Z,1.17
2022-09-27T11:47:57.017Z,1.10
2022-09-27T11:50:30.691Z,1.10
2022-09-27T11:53:16.451Z,1.30
2022-09-27T11:56:23.226Z,1.27
2022-09-27T11:58:50.229Z,1.43
2022-09-27T12:01:46.986Z,1.57
2022-09-27T12:04:32.905Z,1.03
2022-09-27T12:07:18.731Z,1.10
2022-09-27T12:09:48.784Z,1.00
2022-09-27T12:12:15.850Z,1.23
2022-09-27T12:14:48.846Z,1.17
2022-09-27T12:17:24.443Z,1.87
2022-09-27T12:19:54.169Z,1.10
2022-09-27T12:22:53.878Z,1.03
2022-09-27T12:25:20.988Z,1.27
2022-09-27T12:27:51.836Z,1.33
2022-09-27T12:30:18.874Z,2.03
2022-09-27T12:32:54.037Z,0.80
2022-09-27T12:35:26.663Z,0.87
2022-09-27T12:37:59.316Z,0.80
2022-09-27T12:40:28.334Z,0.90
2022-09-27T12:43:05.617Z,1.10
2022-09-27T12:45:57.678Z,0.97
2022-09-27T12:48:32.683Z,1.17
2022-09-27T12:51:16.399Z,1.20
2022-09-27T12:53:47.637Z,1.03
2022-09-27T12:56:17.758Z,1.10
2022-09-27T12:59:25.387Z,1.20
2022-09-27T13:02:20.953Z,1.20
2022-09-27T13:04:57.964Z,1.50
2022-09-27T13:07:35.151Z,1.30
2022-09-27T13:10:30.006Z,1.30
2022-09-27T13:12:58.272Z,1.20
2022-09-27T13:15:30.794Z,1.30
2022-09-27T13:18:03.622Z,1.20
2022-09-27T13:20:36.205Z,1.20
2022-09-27T13:23:25.823Z,1.67
2022-09-27T13:25:57.472Z,1.93
2022-09-27T13:28:27.853Z,1.50
2022-09-27T13:30:55.927Z,1.60
2022-09-27T13:33:44.139Z,1.50
2022-09-27T13:36:16.967Z,1.40
2022-09-27T13:39:01.711Z,1.80
2022-09-27T13:41:31.543Z,1.30
2022-09-27T13:44:29.420Z,1.30
2022-09-27T13:47:00.899Z,1.00
2022-09-27T13:49:38.076Z,1.20
2022-09-27T13:52:16.398Z,1.30
2022-09-27T13:54:57.618Z,1.20
2022-09-27T13:57:54.207Z,1.13
2022-09-27T14:00:24.468Z,1.37
2022-09-27T14:03:02.663Z,1.63
2022-09-27T14:05:53.487Z,1.40
2022-09-27T14:08:34.662Z,1.40
2022-09-27T14:11:12.324Z,1.60
2022-09-27T14:13:40.859Z,1.60
2022-09-27T14:16:08.559Z,1.60
2022-09-27T14:18:39.860Z,2.40
2022-09-27T14:21:19.443Z,1.93
2022-09-27T14:23:46.106Z,1.80
2022-09-27T14:26:27.923Z,1.40
2022-09-27T14:28:54.578Z,1.43
2022-09-27T14:31:23.686Z,1.70
2022-09-27T14:34:04.375Z,1.50
2022-09-27T14:36:51.623Z,1.40
2022-09-27T14:39:32.749Z,1.60
2022-09-27T14:42:00.035Z,1.40
2022-09-27T14:44:28.570Z,1.87
2022-09-27T14:47:18.204Z,1.50
2022-09-27T14:50:20.365Z,1.40
2022-09-27T14:52:48.976Z,1.58
2022-09-27T14:55:21.807Z,1.57
2022-09-27T14:57:54.145Z,1.83
2022-09-27T15:00:45.043Z,1.93
2022-09-27T15:03:20.434Z,1.20
2022-09-27T15:05:47.658Z,2.30
2022-09-27T15:08:15.348Z,3.37
2022-09-27T15:10:42.159Z,7.03
2022-09-27T15:13:18.499Z,4.23
2022-09-27T15:15:46.275Z,3.13
2022-09-27T15:18:40.689Z,1.60
2022-09-27T15:21:29.253Z,1.40
2022-09-27T15:23:56.654Z,1.03
2022-09-27T15:26:35.838Z,1.13
2022-09-27T15:29:02.741Z,1.20
2022-09-27T15:31:36.856Z,1.07
2022-09-27T15:34:07.319Z,1.00
2022-09-27T15:36:51.216Z,1.10
2022-09-27T15:39:32.252Z,1.10
2022-09-27T15:42:07.663Z,1.33
2022-09-27T15:44:45.187Z,1.40
2022-09-27T15:47:42.973Z,1.30
2022-09-27T15:50:33.331Z,1.23
2022-09-27T15:52:59.962Z,1.03
2022-09-27T15:55:28.639Z,1.10
2022-09-27T15:58:05.162Z,1.40
2022-09-27T16:00:32.178Z,1.40
2022-09-27T16:02:58.797Z,1.33
2022-09-27T16:05:27.016Z,1.20
2022-09-27T16:07:53.644Z,1.30
2022-09-27T16:10:27.166Z,1.20
2022-09-27T16:12:53.712Z,1.30
2022-09-27T16:15:20.326Z,1.30
2022-09-27T16:17:46.867Z,1.33
2022-09-27T16:20:26.434Z,1.50
2022-09-27T16:22:54.702Z,1.23
2022-09-27T16:25:22.553Z,1.30
2022-09-27T16:27:49.874Z,1.00
2022-09-27T16:30:17.368Z,1.37
2022-09-27T16:32:46.335Z,1.47
2022-09-27T16:35:14.617Z,1.53
2022-09-27T16:37:41.773Z,1.43
2022-09-27T16:40:09.753Z,1.50
2022-09-27T16:42:37.195Z,1.55
2022-09-27T16:45:09.967Z,1.37
2022-09-27T16:47:38.007Z,1.70
2022-09-27T16:50:24.442Z,1.60
2022-09-27T16:52:52.430Z,2.07
2022-09-27T16:55:20.941Z,2.50
2022-09-27T16:57:48.802Z,1.40
2022-09-27T17:00:16.362Z,1.63
2022-09-27T17:02:47.068Z,1.57
2022-09-27T17:05:14.648Z,1.40
2022-09-27T17:07:41.690Z,1.43
2022-09-27T17:10:08.635Z,1.43
2022-09-27T17:12:35.475Z,1.60
2022-09-27T17:15:02.053Z,1.40
2022-09-27T17:17:30.671Z,1.37
2022-09-27T17:19:57.258Z,1.57
2022-09-27T17:22:23.876Z,1.50
2022-09-27T17:24:51.158Z,1.67
2022-09-27T17:27:18.002Z,1.50
2022-09-27T17:29:44.571Z,1.60
2022-09-27T17:32:13.563Z,1.40
2022-09-27T17:34:43.407Z,1.57
2022-09-27T17:37:13.523Z,1.67
2022-09-27T17:39:40.096Z,1.50
2022-09-27T17:42:06.737Z,1.80
2022-09-27T17:44:33.434Z,1.50
2022-09-27T17:47:25.957Z,1.50
2022-09-27T17:50:11.290Z,1.73
2022-09-27T17:52:37.903Z,1.63
2022-09-27T17:55:04.881Z,1.57
2022-09-27T17:57:31.751Z,1.73
2022-09-27T17:59:58.401Z,2.10
2022-09-27T18:02:26.389Z,1.80
2022-09-27T18:04:53.014Z,1.60
2022-09-27T18:07:19.869Z,1.57
2022-09-27T18:09:46.551Z,1.40
2022-09-27T18:12:13.627Z,1.93
2022-09-27T18:14:40.239Z,5.53
2022-09-27T18:17:06.864Z,4.87
2022-09-27T18:19:33.406Z,3.43
2022-09-27T18:22:00.712Z,5.90
2022-09-27T18:24:27.299Z,1.77
2022-09-27T18:26:55.687Z,1.70
2022-09-27T18:29:22.627Z,1.50
2022-09-27T18:31:49.470Z,1.40
2022-09-27T18:34:18.037Z,1.60
2022-09-27T18:36:44.929Z,1.60
2022-09-27T18:39:18.851Z,1.83
2022-09-27T18:41:48.429Z,1.50
2022-09-27T18:44:16.204Z,4.50
2022-09-27T18:46:43.630Z,4.23
2022-09-27T18:49:12.576Z,4.60
2022-09-27T18:51:43.615Z,1.87
2022-09-27T18:54:19.616Z,1.70
2022-09-27T18:56:48.292Z,1.63
2022-09-27T18:59:17.076Z,1.70
2022-09-27T19:01:45.742Z,1.80
2022-09-27T19:04:15.551Z,1.50
2022-09-27T19:06:42.774Z,1.10
2022-09-27T19:09:11.390Z,1.50
2022-09-27T19:11:38.857Z,1.50
2022-09-27T19:14:05.851Z,1.30
2022-09-27T19:16:33.263Z,1.40
2022-09-27T19:19:00.367Z,1.30
2022-09-27T19:21:28.364Z,1.20
2022-09-27T19:23:56.062Z,1.50
2022-09-27T19:26:24.127Z,1.20
2022-09-27T19:28:51.581Z,1.30
2022-09-27T19:31:25.924Z,1.17
2022-09-27T19:33:59.067Z,1.37
2022-09-27T19:36:27.415Z,1.53
2022-09-27T19:38:56.244Z,1.20
2022-09-27T19:41:23.275Z,1.60
2022-09-27T19:43:53.948Z,1.60
2022-09-27T19:46:21.620Z,1.70
2022-09-27T19:48:49.214Z,1.70
2022-09-27T19:51:20.607Z,1.60
2022-09-27T19:53:47.920Z,2.50
2022-09-27T19:56:15.309Z,1.80
2022-09-27T19:58:43.067Z,2.97
2022-09-27T20:01:20.080Z,3.33
2022-09-27T20:03:47.620Z,2.00
2022-09-27T20:06:15.761Z,1.70
2022-09-27T20:08:43.044Z,1.60
2022-09-27T20:11:11.464Z,1.67
2022-09-27T20:13:39.060Z,1.40
2022-09-27T20:16:07.489Z,1.50
2022-09-27T20:18:34.937Z,1.47
2022-09-27T20:21:02.702Z,1.53
2022-09-27T20:23:30.650Z,1.40
2022-09-27T20:26:05.351Z,1.40
2022-09-27T20:28:32.681Z,1.33
2022-09-27T20:31:00.793Z,1.80
2022-09-27T20:34:06.591Z,1.93
2022-09-27T20:36:36.711Z,1.20
2022-09-27T20:39:05.142Z,1.43
2022-09-27T20:41:33.165Z,1.10
2022-09-27T20:44:01.333Z,0.87
2022-09-27T20:46:28.424Z,1.10
2022-09-27T20:48:56.826Z,0.97
2022-09-27T20:51:24.333Z,1.10
2022-09-27T20:53:51.848Z,1.10
2022-09-27T20:56:20.209Z,1.10
2022-09-27T20:58:48.149Z,1.43
2022-09-27T21:01:15.324Z,1.10
2022-09-27T21:03:42.357Z,1.20
2022-09-27T21:06:09.490Z,1.67
2022-09-27T21:08:36.564Z,1.30
2022-09-27T21:11:04.518Z,1.23
2022-09-27T21:13:31.564Z,0.97
2022-09-27T21:16:02.727Z,1.00
2022-09-27T21:18:29.886Z,1.13
2022-09-27T21:20:57.898Z,1.10
2022-09-27T21:23:25.316Z,1.10
2022-09-27T21:26:00.978Z,1.30
2022-09-27T21:28:31.640Z,1.20
2022-09-27T21:31:01.670Z,1.13
2022-09-27T21:33:28.775Z,1.20
2022-09-27T21:35:56.089Z,1.13
2022-09-27T21:38:23.116Z,1.30
2022-09-27T21:41:01.810Z,1.38
2022-09-27T21:43:29.687Z,1.30
2022-09-27T21:46:09.945Z,1.37
2022-09-27T21:48:38.031Z,1.10
2022-09-27T21:51:06.270Z,1.60
2022-09-27T21:53:34.012Z,1.20
2022-09-27T21:56:01.126Z,1.40
2022-09-27T21:58:28.205Z,1.53
2022-09-27T22:00:55.359Z,1.27
2022-09-27T22:03:22.377Z,1.40
2022-09-27T22:05:50.230Z,1.20
2022-09-27T22:08:20.384Z,1.20
2022-09-27T22:10:47.442Z,1.50
2022-09-27T22:13:14.568Z,1.10
2022-09-27T22:15:41.815Z,1.30
2022-09-27T22:18:08.823Z,1.10
2022-09-27T22:20:35.851Z,1.40
2022-09-27T22:23:02.892Z,1.30
2022-09-27T22:25:30.302Z,1.10
2022-09-27T22:27:57.352Z,1.27
2022-09-27T22:30:24.552Z,1.40
2022-09-27T22:32:51.601Z,1.17
2022-09-27T22:35:18.687Z,1.17
2022-09-27T22:37:45.866Z,1.40
2022-09-27T22:40:13.287Z,1.30
2022-09-27T22:42:40.280Z,1.30
2022-09-27T22:45:07.771Z,1.23
2022-09-27T22:47:34.777Z,1.33
2022-09-27T22:50:02.149Z,1.20
2022-09-27T22:52:29.202Z,1.10
2022-09-27T22:54:56.245Z,1.42
2022-09-27T22:57:23.233Z,1.23
2022-09-27T22:59:50.267Z,1.13
2022-09-27T23:02:17.246Z,1.13
2022-09-27T23:04:44.238Z,1.40
2022-09-27T23:07:12.721Z,1.33
2022-09-27T23:09:40.314Z,0.97
2022-09-27T23:12:07.510Z,1.30
2022-09-27T23:14:34.574Z,1.23
2022-09-27T23:17:01.542Z,1.10
2022-09-27T23:19:28.559Z,1.47
2022-09-27T23:21:55.643Z,1.50
2022-09-27T23:24:23.441Z,1.27
2022-09-27T23:27:10.436Z,1.67
2022-09-27T23:29:37.604Z,1.80
2022-09-27T23:32:05.284Z,1.50
2022-09-27T23:34:32.698Z,1.50
2022-09-27T23:36:59.795Z,1.77
2022-09-27T23:39:26.857Z,1.10
2022-09-27T23:41:53.880Z,1.50
2022-09-27T23:44:22.660Z,1.40
2022-09-27T23:46:49.715Z,1.43
2022-09-27T23:49:16.856Z,1.40
2022-09-27T23:51:45.264Z,1.33
2022-09-27T23:54:12.630Z,1.37
2022-09-27T23:56:39.628Z,1.37
2022-09-27T23:59:06.775Z,1.30
